createdAt,value
2024-02-19T00:00:51.442Z,6.23
2024-02-19T00:03:18.954Z,7.00
2024-02-19T00:05:46.552Z,8.77
2024-02-19T00:08:14.135Z,9.25
2024-02-19T00:10:41.934Z,9.97
2024-02-19T00:13:11.064Z,12.33
2024-02-19T00:15:38.611Z,11.38
2024-02-19T00:18:07.742Z,11.55
2024-02-19T00:20:35.311Z,12.73
2024-02-19T00:23:02.762Z,12.63
2024-02-19T00:25:31.033Z,10.55
2024-02-19T00:27:58.572Z,12.15
2024-02-19T00:30:27.458Z,12.05
2024-02-19T00:32:55.127Z,8.18
2024-02-19T00:35:23.031Z,10.38
2024-02-19T00:37:50.768Z,7.97
2024-02-19T00:40:20.156Z,8.63
2024-02-19T00:42:47.782Z,7.45
2024-02-19T00:45:15.427Z,9.67
2024-02-19T00:47:44.327Z,11.47
2024-02-19T00:50:12.164Z,9.15
2024-02-19T00:52:41.029Z,12.73
2024-02-19T00:55:08.691Z,9.77
2024-02-19T00:57:36.285Z,7.80
2024-02-19T01:00:05.127Z,10.50
2024-02-19T01:02:32.684Z,9.45
2024-02-19T01:05:01.702Z,8.17
2024-02-19T01:07:29.258Z,9.27
2024-02-19T01:09:56.748Z,9.85
2024-02-19T01:12:24.244Z,9.40
2024-02-19T01:14:51.695Z,10.18
2024-02-19T01:17:19.271Z,12.55
2024-02-19T01:19:47.367Z,14.13
2024-02-19T01:22:16.307Z,12.10
2024-02-19T01:24:43.797Z,10.87
2024-02-19T01:27:11.416Z,8.87
2024-02-19T01:29:38.882Z,7.80
2024-02-19T01:32:06.546Z,8.38
2024-02-19T01:34:34.119Z,10.53
2024-02-19T01:37:01.757Z,11.75
2024-02-19T01:39:30.522Z,8.07
2024-02-19T01:41:58.025Z,9.87
2024-02-19T01:44:25.529Z,9.13
2024-02-19T01:46:53.550Z,7.00
2024-02-19T01:49:21.399Z,8.90
2024-02-19T01:51:50.131Z,10.37
2024-02-19T01:54:17.769Z,8.00
2024-02-19T01:56:46.869Z,8.85
2024-02-19T01:59:16.598Z,6.80
2024-02-19T02:01:44.822Z,8.03
2024-02-19T02:04:13.766Z,6.40
2024-02-19T02:06:41.934Z,6.10
2024-02-19T02:09:09.941Z,9.10
2024-02-19T02:11:37.468Z,8.98
2024-02-19T02:14:06.237Z,10.73
2024-02-19T02:16:34.533Z,6.25
2024-02-19T02:19:02.169Z,8.13
2024-02-19T02:21:29.646Z,6.90
2024-02-19T02:23:57.087Z,10.45
2024-02-19T02:26:24.917Z,7.22
2024-02-19T02:28:53.675Z,8.52
2024-02-19T02:31:21.218Z,9.40
2024-02-19T02:33:48.908Z,10.10
2024-02-19T02:36:16.155Z,8.60
2024-02-19T02:38:43.574Z,7.38
2024-02-19T02:41:11.066Z,10.90
2024-02-19T02:43:38.615Z,9.77
2024-02-19T02:46:07.533Z,10.68
2024-02-19T02:48:35.133Z,13.05
2024-02-19T02:51:02.703Z,9.43
2024-02-19T02:53:30.102Z,7.67
2024-02-19T02:55:57.521Z,8.67
2024-02-19T02:58:24.949Z,5.60
2024-02-19T03:00:52.764Z,9.60
2024-02-19T03:03:21.683Z,7.65
2024-02-19T03:05:49.205Z,12.38
2024-02-19T03:08:16.693Z,8.45
2024-02-19T03:10:44.453Z,6.55
2024-02-19T03:13:12.221Z,6.00
2024-02-19T03:15:39.727Z,7.47
2024-02-19T03:18:07.551Z,10.98
2024-02-19T03:20:37.603Z,10.50
2024-02-19T03:23:05.243Z,9.10
2024-02-19T03:25:32.806Z,8.75
2024-02-19T03:28:00.286Z,8.35
2024-02-19T03:30:30.669Z,6.93
2024-02-19T03:32:58.401Z,9.57
2024-02-19T03:35:25.902Z,4.00
2024-02-19T03:37:54.788Z,7.00
2024-02-19T03:40:22.313Z,6.18
2024-02-19T03:42:49.941Z,5.45
2024-02-19T03:45:17.845Z,5.27
2024-02-19T03:47:45.283Z,8.80
2024-02-19T03:50:13.087Z,6.95
2024-02-19T03:52:40.534Z,5.97
2024-02-19T03:55:10.036Z,5.82
2024-02-19T03:57:37.525Z,10.57
2024-02-19T04:00:05.783Z,5.65
2024-02-19T04:02:34.126Z,8.00
2024-02-19T04:05:01.733Z,5.10
2024-02-19T04:07:29.281Z,6.30
2024-02-19T04:09:56.813Z,10.13
2024-02-19T04:12:25.652Z,5.63
2024-02-19T04:14:53.128Z,5.57
2024-02-19T04:17:20.574Z,4.90
2024-02-19T04:19:48.320Z,6.38
2024-02-19T04:22:15.847Z,6.78
2024-02-19T04:24:43.326Z,5.95
2024-02-19T04:27:10.875Z,8.50
2024-02-19T04:29:39.627Z,4.03
2024-02-19T04:32:07.354Z,5.88
2024-02-19T04:34:38.352Z,5.57
2024-02-19T04:37:09.042Z,3.55
2024-02-19T04:39:36.957Z,8.32
2024-02-19T04:42:04.708Z,5.57
2024-02-19T04:44:32.474Z,11.25
2024-02-19T04:47:01.262Z,5.65
2024-02-19T04:49:28.996Z,9.88
2024-02-19T04:51:56.526Z,8.02
2024-02-19T04:54:24.223Z,6.75
2024-02-19T04:56:51.644Z,6.07
2024-02-19T04:59:19.084Z,6.82
2024-02-19T05:01:46.636Z,10.80
2024-02-19T05:04:15.549Z,14.63
2024-02-19T05:06:43.085Z,10.32
2024-02-19T05:09:10.582Z,9.10
2024-02-19T05:11:38.018Z,9.77
2024-02-19T05:14:05.483Z,8.73
2024-02-19T05:16:32.929Z,7.57
2024-02-19T05:19:01.396Z,10.30
2024-02-19T05:21:31.915Z,9.73
2024-02-19T05:23:59.566Z,5.53
2024-02-19T05:26:28.096Z,9.40
2024-02-19T05:28:55.771Z,7.38
2024-02-19T05:31:32.558Z,7.15
2024-02-19T05:34:00.258Z,8.40
2024-02-19T05:36:27.725Z,7.93
2024-02-19T05:38:56.521Z,8.93
2024-02-19T05:41:24.047Z,9.10
2024-02-19T05:43:51.639Z,8.73
2024-02-19T05:46:19.509Z,6.97
2024-02-19T05:48:47.150Z,5.32
2024-02-19T05:51:14.769Z,9.60
2024-02-19T05:53:42.757Z,6.80
2024-02-19T05:56:11.730Z,7.07
2024-02-19T05:58:42.634Z,7.28
2024-02-19T06:01:10.300Z,7.22
2024-02-19T06:03:37.863Z,6.63
2024-02-19T06:06:05.766Z,7.72
2024-02-19T06:08:33.196Z,6.65
2024-02-19T06:11:00.886Z,6.85
2024-02-19T06:13:29.926Z,3.80
2024-02-19T06:15:57.553Z,6.60
2024-02-19T06:18:25.141Z,9.50
2024-02-19T06:20:52.714Z,6.40
2024-02-19T06:23:20.135Z,6.30
2024-02-19T06:25:47.714Z,5.30
2024-02-19T06:28:15.283Z,7.05
2024-02-19T06:30:44.259Z,4.37
2024-02-19T06:33:11.815Z,3.78
2024-02-19T06:35:39.636Z,6.20
2024-02-19T06:38:07.118Z,7.50
2024-02-19T06:40:34.674Z,6.30
2024-02-19T06:43:02.383Z,8.00
2024-02-19T06:45:29.855Z,8.02
2024-02-19T06:47:58.696Z,6.88
2024-02-19T06:50:26.188Z,7.72
2024-02-19T06:52:53.644Z,5.60
2024-02-19T06:55:21.247Z,5.47
2024-02-19T06:57:48.715Z,6.20
2024-02-19T07:00:17.024Z,8.05
2024-02-19T07:02:44.669Z,5.22
2024-02-19T07:05:13.650Z,5.80
2024-02-19T07:07:41.262Z,4.85
2024-02-19T07:10:09.273Z,5.00
2024-02-19T07:12:36.775Z,4.50
2024-02-19T07:15:04.396Z,5.17
2024-02-19T07:17:32.040Z,8.25
2024-02-19T07:20:00.503Z,4.90
2024-02-19T07:22:29.574Z,6.63
2024-02-19T07:25:06.016Z,6.80
2024-02-19T07:27:41.980Z,5.43
2024-02-19T07:30:10.359Z,7.00
2024-02-19T07:32:37.952Z,5.93
2024-02-19T07:35:05.858Z,11.97
2024-02-19T07:37:34.819Z,5.97
2024-02-19T07:40:03.154Z,6.63
2024-02-19T07:42:30.711Z,5.13
2024-02-19T07:44:58.123Z,9.63
2024-02-19T07:47:25.635Z,10.07
2024-02-19T07:49:53.095Z,7.50
2024-02-19T07:52:20.605Z,11.13
2024-02-19T07:54:49.423Z,7.05
2024-02-19T07:57:16.931Z,9.50
2024-02-19T07:59:44.339Z,6.77
2024-02-19T08:02:12.381Z,5.40
2024-02-19T08:04:40.103Z,7.67
2024-02-19T08:07:07.718Z,8.43
2024-02-19T08:09:35.223Z,5.38
2024-02-19T08:12:04.313Z,5.30
2024-02-19T08:14:31.819Z,3.73
2024-02-19T08:16:59.324Z,5.63
2024-02-19T08:19:26.868Z,7.17
2024-02-19T08:21:57.495Z,4.93
2024-02-19T08:24:25.003Z,5.93
2024-02-19T08:26:52.424Z,6.13
2024-02-19T08:29:21.551Z,4.73
2024-02-19T08:31:48.966Z,9.97
2024-02-19T08:34:18.090Z,6.03
2024-02-19T08:36:45.789Z,6.90
2024-02-19T08:39:13.236Z,7.83
2024-02-19T08:41:40.734Z,7.73
2024-02-19T08:44:08.354Z,6.88
2024-02-19T08:46:37.176Z,8.53
2024-02-19T08:49:04.672Z,7.77
2024-02-19T08:51:32.158Z,7.83
2024-02-19T08:54:00.367Z,7.63
2024-02-19T08:56:28.167Z,6.63
2024-02-19T08:58:55.600Z,6.73
2024-02-19T09:01:23.106Z,8.30
2024-02-19T09:03:52.033Z,6.23
2024-02-19T09:06:19.560Z,9.35
2024-02-19T09:08:47.038Z,6.93
2024-02-19T09:11:14.564Z,6.65
2024-02-19T09:13:44.692Z,6.77
2024-02-19T09:16:13.967Z,7.68
2024-02-19T09:18:41.641Z,6.40
2024-02-19T09:21:10.515Z,4.63
2024-02-19T09:23:38.649Z,8.70
2024-02-19T09:26:06.130Z,8.30
2024-02-19T09:28:33.654Z,6.82
2024-02-19T09:31:01.180Z,10.80
2024-02-19T09:33:28.715Z,8.95
2024-02-19T09:35:56.632Z,10.57
2024-02-19T09:38:25.903Z,11.57
2024-02-19T09:40:53.617Z,12.50
2024-02-19T09:43:21.957Z,10.93
2024-02-19T09:45:50.411Z,11.63
2024-02-19T09:48:19.579Z,12.13
2024-02-19T09:50:49.136Z,12.52
2024-02-19T09:53:19.761Z,10.93
2024-02-19T09:55:48.611Z,8.57
2024-02-19T09:58:16.727Z,14.05
2024-02-19T10:00:44.419Z,12.67
2024-02-19T10:03:13.097Z,15.20
2024-02-19T10:05:40.681Z,9.88
2024-02-19T10:08:13.842Z,10.40
2024-02-19T10:10:43.557Z,12.35
2024-02-19T10:13:13.942Z,14.18
2024-02-19T10:15:41.418Z,11.55
2024-02-19T10:18:16.053Z,16.60
2024-02-19T10:20:45.796Z,16.67
2024-02-19T10:23:13.275Z,12.17
2024-02-19T10:25:40.684Z,13.00
2024-02-19T10:28:10.012Z,14.18
2024-02-19T10:30:39.062Z,12.30
2024-02-19T10:33:06.662Z,10.48
2024-02-19T10:35:34.149Z,12.35
2024-02-19T10:38:01.857Z,15.30
2024-02-19T10:40:29.726Z,17.73
2024-02-19T10:42:58.181Z,11.45
2024-02-19T10:45:25.923Z,17.08
2024-02-19T10:47:56.073Z,12.40
2024-02-19T10:50:23.717Z,9.95
2024-02-19T10:52:51.590Z,15.05
2024-02-19T10:55:32.116Z,16.88
2024-02-19T10:58:13.997Z,12.73
2024-02-19T11:00:43.256Z,16.00
2024-02-19T11:03:13.929Z,13.57
2024-02-19T11:05:43.257Z,13.32
2024-02-19T11:08:19.260Z,14.43
2024-02-19T11:10:48.925Z,16.13
2024-02-19T11:13:19.229Z,14.55
2024-02-19T11:15:47.336Z,13.25
2024-02-19T11:18:17.465Z,15.30
2024-02-19T11:20:45.935Z,10.18
2024-02-19T11:23:13.978Z,12.90
2024-02-19T11:25:41.494Z,14.45
2024-02-19T11:28:08.990Z,12.27
2024-02-19T11:30:36.432Z,14.70
2024-02-19T11:33:04.407Z,15.05
2024-02-19T11:35:36.698Z,15.40
2024-02-19T11:38:04.710Z,15.93
2024-02-19T11:40:33.549Z,15.38
2024-02-19T11:43:02.304Z,14.07
2024-02-19T11:45:30.252Z,11.85
2024-02-19T11:47:57.945Z,19.60
2024-02-19T11:50:28.196Z,15.40
2024-02-19T11:52:59.339Z,14.60
2024-02-19T11:55:30.388Z,14.55
2024-02-19T11:58:01.007Z,12.05
2024-02-19T12:00:32.276Z,14.20
2024-02-19T12:03:00.356Z,10.18
2024-02-19T12:05:28.786Z,12.82
2024-02-19T12:07:57.953Z,13.57
2024-02-19T12:10:26.053Z,13.40
2024-02-19T12:12:55.068Z,15.02
2024-02-19T12:15:22.686Z,12.93
2024-02-19T12:17:50.630Z,15.90
2024-02-19T12:20:19.560Z,12.27
2024-02-19T12:22:47.150Z,13.32
2024-02-19T12:25:16.088Z,9.18
2024-02-19T12:27:43.608Z,14.25
2024-02-19T12:30:11.510Z,12.02
2024-02-19T12:32:40.188Z,12.52
2024-02-19T12:35:09.761Z,10.70
2024-02-19T12:37:37.426Z,15.77
2024-02-19T12:40:05.859Z,13.93
2024-02-19T12:42:34.965Z,12.98
2024-02-19T12:45:02.453Z,11.53
2024-02-19T12:47:30.089Z,14.52
2024-02-19T12:49:57.687Z,15.20
2024-02-19T12:52:27.457Z,11.82
2024-02-19T12:54:55.453Z,17.42
2024-02-19T12:57:22.989Z,14.02
2024-02-19T12:59:51.845Z,12.60
2024-02-19T13:02:19.580Z,13.90
2024-02-19T13:04:47.895Z,14.10
2024-02-19T13:07:16.294Z,13.50
2024-02-19T13:09:45.264Z,14.63
2024-02-19T13:12:14.965Z,12.10
2024-02-19T13:14:44.483Z,12.82
2024-02-19T13:17:17.010Z,15.52
2024-02-19T13:19:49.263Z,11.97
2024-02-19T13:22:16.808Z,12.80
2024-02-19T13:24:44.303Z,12.85
2024-02-19T13:27:12.782Z,12.00
2024-02-19T13:29:40.389Z,11.90
2024-02-19T13:32:08.761Z,9.48
2024-02-19T13:34:39.157Z,10.13
2024-02-19T13:37:07.811Z,8.60
2024-02-19T13:39:35.741Z,11.00
2024-02-19T13:42:04.575Z,9.57
2024-02-19T13:44:32.162Z,13.83
2024-02-19T13:46:59.780Z,10.77
2024-02-19T13:49:27.356Z,12.52
2024-02-19T13:51:56.227Z,10.13
2024-02-19T13:54:23.924Z,12.63
2024-02-19T13:56:53.568Z,9.50
2024-02-19T13:59:20.984Z,10.57
2024-02-19T14:01:48.503Z,10.67
2024-02-19T14:04:16.197Z,10.02
2024-02-19T14:06:44.653Z,11.93
2024-02-19T14:09:13.484Z,13.53
2024-02-19T14:11:40.944Z,14.65
2024-02-19T14:14:08.437Z,11.40
2024-02-19T14:16:36.044Z,12.95
2024-02-19T14:19:04.239Z,10.87
2024-02-19T14:21:32.937Z,10.13
2024-02-19T14:24:01.294Z,8.83
2024-02-19T14:26:30.645Z,13.50
2024-02-19T14:28:58.192Z,10.93
2024-02-19T14:31:25.754Z,8.63
2024-02-19T14:33:53.775Z,11.03
2024-02-19T14:36:21.616Z,9.37
2024-02-19T14:38:49.099Z,9.13
2024-02-19T14:41:16.555Z,10.00
2024-02-19T14:43:45.671Z,11.50
2024-02-19T14:46:13.223Z,10.48
2024-02-19T14:48:41.604Z,8.53
2024-02-19T14:51:09.254Z,9.05
2024-02-19T14:53:37.845Z,12.60
2024-02-19T14:56:05.682Z,11.25
2024-02-19T14:58:33.712Z,13.68
2024-02-19T15:01:02.863Z,10.80
2024-02-19T15:03:30.452Z,9.67
2024-02-19T15:05:57.918Z,7.97
2024-02-19T15:08:25.375Z,7.20
2024-02-19T15:10:53.114Z,7.60
2024-02-19T15:13:20.695Z,8.53
2024-02-19T15:15:48.321Z,9.17
2024-02-19T15:18:17.395Z,8.87
2024-02-19T15:20:46.696Z,7.70
2024-02-19T15:23:14.681Z,6.37
2024-02-19T15:25:42.531Z,9.50
2024-02-19T15:28:11.404Z,9.77
2024-02-19T15:30:39.911Z,8.23
2024-02-19T15:33:07.587Z,6.20
2024-02-19T15:35:36.656Z,6.13
2024-02-19T15:38:04.198Z,7.30
2024-02-19T15:40:31.728Z,8.40
2024-02-19T15:42:59.360Z,8.50
2024-02-19T15:45:26.787Z,5.67
2024-02-19T15:47:56.457Z,7.43
2024-02-19T15:50:24.125Z,8.13
2024-02-19T15:53:05.641Z,10.93
2024-02-19T15:55:34.381Z,8.05
2024-02-19T15:58:02.121Z,8.40
2024-02-19T16:00:30.764Z,7.67
2024-02-19T16:02:58.385Z,7.55
2024-02-19T16:05:25.935Z,8.43
2024-02-19T16:07:53.513Z,7.55
2024-02-19T16:10:23.329Z,7.80
2024-02-19T16:12:55.000Z,6.90
2024-02-19T16:15:22.938Z,8.80
2024-02-19T16:17:50.437Z,12.63
2024-02-19T16:20:18.089Z,8.48
2024-02-19T16:22:47.833Z,6.50
2024-02-19T16:25:15.293Z,8.45
2024-02-19T16:27:44.159Z,8.98
2024-02-19T16:30:14.302Z,6.63
2024-02-19T16:32:41.942Z,8.13
2024-02-19T16:35:11.213Z,8.32
2024-02-19T16:37:38.820Z,7.00
2024-02-19T16:40:07.033Z,10.68
2024-02-19T16:42:36.889Z,5.97
2024-02-19T16:45:06.409Z,8.10
2024-02-19T16:47:33.915Z,6.88
2024-02-19T16:50:01.533Z,9.35
2024-02-19T16:52:29.429Z,7.30
2024-02-19T16:54:56.920Z,8.52
2024-02-19T16:57:24.371Z,8.83
2024-02-19T16:59:52.000Z,9.43
2024-02-19T17:02:20.848Z,8.63
2024-02-19T17:04:50.202Z,9.47
2024-02-19T17:07:19.409Z,10.83
2024-02-19T17:09:47.260Z,9.27
2024-02-19T17:12:14.750Z,10.02
2024-02-19T17:14:45.287Z,11.60
2024-02-19T17:17:13.255Z,11.52
2024-02-19T17:19:42.118Z,12.83
2024-02-19T17:22:09.687Z,12.57
2024-02-19T17:24:39.390Z,10.03
2024-02-19T17:27:08.715Z,11.83
2024-02-19T17:29:36.188Z,12.23
2024-02-19T17:32:03.614Z,10.75
2024-02-19T17:34:31.076Z,9.70
2024-02-19T17:37:01.188Z,9.20
2024-02-19T17:39:28.674Z,10.33
2024-02-19T17:41:56.166Z,10.45
2024-02-19T17:44:24.642Z,10.38
2024-02-19T17:46:53.000Z,13.60
2024-02-19T17:49:20.768Z,11.23
2024-02-19T17:51:51.000Z,12.83
2024-02-19T17:54:20.968Z,12.33
2024-02-19T17:56:48.554Z,13.48
2024-02-19T17:59:16.329Z,11.85
2024-02-19T18:01:44.189Z,12.68
2024-02-19T18:04:11.886Z,11.97
2024-02-19T18:06:39.464Z,10.60
2024-02-19T18:09:06.906Z,10.50
2024-02-19T18:11:35.725Z,15.40
2024-02-19T18:14:03.359Z,13.63
2024-02-19T18:16:31.767Z,11.23
2024-02-19T18:19:00.948Z,10.43
2024-02-19T18:21:28.540Z,11.65
2024-02-19T18:23:57.600Z,9.93
2024-02-19T18:26:26.878Z,12.00
2024-02-19T18:28:56.727Z,10.17
2024-02-19T18:31:24.286Z,9.20
2024-02-19T18:33:51.942Z,9.23
2024-02-19T18:36:19.624Z,8.43
2024-02-19T18:38:48.551Z,9.97
2024-02-19T18:41:16.065Z,8.57
2024-02-19T18:43:44.675Z,11.40
2024-02-19T18:46:13.555Z,10.43
2024-02-19T18:48:40.957Z,10.80
2024-02-19T18:51:11.935Z,9.10
2024-02-19T18:53:39.501Z,11.30
2024-02-19T18:56:07.106Z,8.53
2024-02-19T18:58:34.653Z,10.30
2024-02-19T19:01:04.424Z,10.77
2024-02-19T19:03:34.950Z,9.00
2024-02-19T19:06:04.357Z,9.70
2024-02-19T19:08:32.258Z,14.00
2024-02-19T19:10:59.730Z,12.47
2024-02-19T19:13:27.357Z,10.85
2024-02-19T19:15:57.024Z,8.73
2024-02-19T19:18:24.629Z,11.07
2024-02-19T19:20:53.540Z,15.90
2024-02-19T19:23:20.974Z,10.77
2024-02-19T19:25:48.542Z,12.63
2024-02-19T19:28:17.086Z,10.67
2024-02-19T19:30:45.160Z,10.18
2024-02-19T19:33:14.645Z,9.80
2024-02-19T19:35:44.698Z,12.37
2024-02-19T19:38:13.476Z,11.53
2024-02-19T19:40:40.961Z,12.73
2024-02-19T19:43:08.446Z,16.57
2024-02-19T19:45:36.002Z,13.87
2024-02-19T19:48:03.516Z,13.43
2024-02-19T19:50:31.077Z,14.03
2024-02-19T19:52:58.610Z,16.97
2024-02-19T19:55:27.508Z,11.07
2024-02-19T19:57:59.522Z,11.63
2024-02-19T20:00:28.261Z,12.20
2024-02-19T20:02:55.727Z,10.20
2024-02-19T20:05:25.063Z,10.87
2024-02-19T20:07:52.700Z,10.67
2024-02-19T20:10:20.293Z,10.20
2024-02-19T20:12:50.606Z,11.20
2024-02-19T20:15:18.191Z,13.40
2024-02-19T20:17:45.666Z,9.23
2024-02-19T20:20:13.478Z,12.00
2024-02-19T20:22:40.987Z,8.75
2024-02-19T20:25:08.979Z,8.57
2024-02-19T20:27:36.424Z,8.00
2024-02-19T20:30:05.527Z,8.60
2024-02-19T20:32:33.031Z,10.10
2024-02-19T20:35:00.875Z,11.93
2024-02-19T20:37:28.476Z,8.43
2024-02-19T20:40:01.913Z,7.93
2024-02-19T20:42:29.589Z,10.53
2024-02-19T20:44:57.378Z,9.60
2024-02-19T20:47:26.386Z,12.10
2024-02-19T20:49:55.406Z,11.87
2024-02-19T20:52:22.996Z,15.33
2024-02-19T20:54:55.562Z,11.30
2024-02-19T20:57:25.649Z,11.33
2024-02-19T20:59:54.051Z,8.52
2024-02-19T21:02:21.494Z,12.60
2024-02-19T21:04:50.786Z,10.40
2024-02-19T21:07:18.466Z,11.67
2024-02-19T21:09:46.018Z,12.37
2024-02-19T21:12:13.498Z,9.87
2024-02-19T21:14:40.963Z,8.17
2024-02-19T21:17:08.401Z,13.73
2024-02-19T21:19:35.956Z,11.23
2024-02-19T21:22:05.009Z,9.60
2024-02-19T21:24:32.690Z,12.83
2024-02-19T21:27:01.965Z,15.33
2024-02-19T21:29:29.501Z,9.93
2024-02-19T21:31:57.044Z,9.20
2024-02-19T21:34:24.614Z,12.47
2024-02-19T21:36:53.704Z,10.90
2024-02-19T21:39:22.634Z,10.32
2024-02-19T21:41:50.094Z,11.63
2024-02-19T21:44:17.552Z,11.23
2024-02-19T21:46:45.005Z,12.48
2024-02-19T21:49:12.655Z,10.45
2024-02-19T21:51:41.465Z,11.43
2024-02-19T21:54:09.145Z,14.65
2024-02-19T21:56:38.122Z,11.70
2024-02-19T21:59:05.667Z,9.57
2024-02-19T22:01:33.230Z,13.93
2024-02-19T22:04:02.083Z,15.30
2024-02-19T22:06:29.769Z,13.32
2024-02-19T22:09:01.149Z,13.30
2024-02-19T22:11:28.664Z,12.57
2024-02-19T22:13:57.498Z,15.20
2024-02-19T22:16:25.000Z,14.27
2024-02-19T22:18:52.569Z,12.48
2024-02-19T22:21:20.073Z,10.85
2024-02-19T22:23:47.636Z,11.50
2024-02-19T22:26:15.216Z,12.50
2024-02-19T22:28:42.688Z,7.43
2024-02-19T22:31:11.557Z,11.50
2024-02-19T22:33:38.989Z,17.52
2024-02-19T22:36:06.577Z,12.20
2024-02-19T22:38:34.075Z,15.37
2024-02-19T22:41:01.620Z,12.67
2024-02-19T22:43:30.193Z,12.60
2024-02-19T22:45:57.726Z,9.73
2024-02-19T22:48:26.586Z,11.13
2024-02-19T22:50:54.189Z,9.93
2024-02-19T22:53:21.679Z,10.03
2024-02-19T22:55:49.117Z,13.30
2024-02-19T22:58:29.306Z,17.40
2024-02-19T23:01:00.799Z,16.67
2024-02-19T23:03:30.122Z,9.38
2024-02-19T23:05:57.991Z,10.73
2024-02-19T23:08:25.582Z,13.00
2024-02-19T23:10:55.529Z,12.45
2024-02-19T23:13:23.213Z,7.13
2024-02-19T23:15:51.026Z,12.03
2024-02-19T23:18:18.651Z,14.45
2024-02-19T23:20:47.551Z,16.80
2024-02-19T23:23:15.067Z,12.98
2024-02-19T23:25:42.654Z,11.20
2024-02-19T23:28:10.195Z,16.77
2024-02-19T23:30:37.672Z,11.37
2024-02-19T23:33:05.381Z,16.30
2024-02-19T23:35:34.144Z,14.63
2024-02-19T23:38:05.413Z,15.17
2024-02-19T23:40:32.853Z,11.33
2024-02-19T23:43:00.670Z,11.27
2024-02-19T23:45:28.365Z,11.30
2024-02-19T23:47:55.921Z,9.03
2024-02-19T23:50:23.535Z,13.20
2024-02-19T23:52:51.174Z,11.40
2024-02-19T23:55:19.980Z,14.73
2024-02-19T23:57:47.432Z,11.82
